createdAt,value
2019-01-14T00:00:26.799Z,87.60
2019-01-14T00:01:26.796Z,87.04
2019-01-14T00:02:26.770Z,86.67
2019-01-14T00:03:26.962Z,85.11
2019-01-14T00:04:26.759Z,84.97
2019-01-14T00:05:26.753Z,86.11
2019-01-14T00:06:26.737Z,84.60
2019-01-14T00:07:26.733Z,85.22
2019-01-14T00:08:26.703Z,84.50
2019-01-14T00:09:31.186Z,84.39
2019-01-14T00:10:26.686Z,84.50
2019-01-14T00:11:26.671Z,83.25
2019-01-14T00:12:26.673Z,83.98
2019-01-14T00:13:26.672Z,83.77
2019-01-14T00:14:26.668Z,83.87
2019-01-14T00:15:26.649Z,84.50
2019-01-14T00:16:26.621Z,84.08
2019-01-14T00:17:26.606Z,85.02
2019-01-14T00:18:26.610Z,83.56
2019-01-14T00:19:26.610Z,85.53
2019-01-14T00:20:26.578Z,83.77
2019-01-14T00:21:26.557Z,83.98
2019-01-14T00:22:26.581Z,84.50
2019-01-14T00:23:26.544Z,85.02
2019-01-14T00:24:26.554Z,86.71
2019-01-14T00:25:26.531Z,86.60
2019-01-14T00:26:26.522Z,87.43
2019-01-14T00:27:26.529Z,87.74
2019-01-14T00:28:26.483Z,89.19
2019-01-14T00:29:26.489Z,89.44
2019-01-14T00:30:26.464Z,88.82
2019-01-14T00:31:26.448Z,88.76
2019-01-14T00:32:26.483Z,89.48
2019-01-14T00:33:26.441Z,89.79
2019-01-14T00:34:26.423Z,89.17
2019-01-14T00:35:26.418Z,89.69
2019-01-14T00:36:26.412Z,89.28
2019-01-14T00:37:26.395Z,88.76
2019-01-14T00:38:26.408Z,88.45
2019-01-14T00:39:26.393Z,88.55
2019-01-14T00:40:26.371Z,88.90
2019-01-14T00:41:26.348Z,89.42
2019-01-14T00:42:26.326Z,89.69
2019-01-14T00:43:26.354Z,88.39
2019-01-14T00:44:26.319Z,88.28
2019-01-14T00:45:26.312Z,88.59
2019-01-14T00:46:26.296Z,87.66
2019-01-14T00:47:26.291Z,87.55
2019-01-14T00:48:26.285Z,87.45
2019-01-14T00:49:26.262Z,87.24
2019-01-14T00:50:26.254Z,86.62
2019-01-14T00:51:26.252Z,86.41
2019-01-14T00:52:26.232Z,86.47
2019-01-14T00:53:26.238Z,86.27
2019-01-14T00:54:26.203Z,85.06
2019-01-14T00:55:26.197Z,85.24
2019-01-14T00:56:26.190Z,85.34
2019-01-14T00:57:26.172Z,85.86
2019-01-14T00:58:26.212Z,84.09
2019-01-14T00:59:26.162Z,84.41
2019-01-14T01:00:26.133Z,84.82
2019-01-14T01:01:26.144Z,84.41
2019-01-14T01:02:26.121Z,84.41
2019-01-14T01:03:26.105Z,84.41
2019-01-14T01:04:26.123Z,83.99
2019-01-14T01:05:26.123Z,83.89
2019-01-14T01:06:26.078Z,83.78
2019-01-14T01:07:26.064Z,82.65
2019-01-14T01:08:26.074Z,83.37
2019-01-14T01:09:26.083Z,85.03
2019-01-14T01:10:26.042Z,83.06
2019-01-14T01:11:26.019Z,84.41
2019-01-14T01:12:26.012Z,82.95
2019-01-14T01:13:26.006Z,82.54
2019-01-14T01:14:26.009Z,83.26
2019-01-14T01:15:25.980Z,83.89
2019-01-14T01:16:25.977Z,85.13
2019-01-14T01:17:25.956Z,85.24
2019-01-14T01:18:25.959Z,85.13
2019-01-14T01:19:25.963Z,85.13
2019-01-14T01:20:25.914Z,84.92
2019-01-14T01:21:25.944Z,84.92
2019-01-14T01:22:25.907Z,86.47
2019-01-14T01:23:25.891Z,86.27
2019-01-14T01:24:25.872Z,86.17
2019-01-14T01:25:25.873Z,86.89
2019-01-14T01:26:25.853Z,87.45
2019-01-14T01:27:25.874Z,86.17
2019-01-14T01:28:25.840Z,86.83
2019-01-14T01:29:25.831Z,86.83
2019-01-14T01:30:25.816Z,85.58
2019-01-14T01:31:25.829Z,86.62
2019-01-14T01:32:25.819Z,87.45
2019-01-14T01:33:25.780Z,87.45
2019-01-14T01:34:25.761Z,87.66
2019-01-14T01:35:25.760Z,87.76
2019-01-14T01:36:31.878Z,86.31
2019-01-14T01:37:26.762Z,86.41
2019-01-14T01:38:25.745Z,86.10
2019-01-14T01:39:25.732Z,86.27
2019-01-14T01:40:25.717Z,86.79
2019-01-14T01:41:25.702Z,85.03
2019-01-14T01:42:25.746Z,85.65
2019-01-14T01:43:25.678Z,86.17
2019-01-14T01:44:25.683Z,85.27
2019-01-14T01:45:25.645Z,86.68
2019-01-14T01:46:25.634Z,86.79
2019-01-14T01:47:25.639Z,87.24
2019-01-14T01:48:25.657Z,85.48
2019-01-14T01:49:25.635Z,86.41
2019-01-14T01:50:25.614Z,86.83
2019-01-14T01:51:25.599Z,87.14
2019-01-14T01:52:25.581Z,87.04
2019-01-14T01:53:25.569Z,86.72
2019-01-14T01:54:25.591Z,86.83
2019-01-14T01:55:25.546Z,87.35
2019-01-14T01:56:25.544Z,86.83
2019-01-14T01:57:25.515Z,87.04
2019-01-14T01:58:25.505Z,86.83
2019-01-14T01:59:25.511Z,87.04
2019-01-14T02:00:25.506Z,87.76
2019-01-14T02:01:25.489Z,88.79
2019-01-14T02:02:25.485Z,88.90
2019-01-14T02:03:25.464Z,87.70
2019-01-14T02:04:25.459Z,87.49
2019-01-14T02:05:25.433Z,87.45
2019-01-14T02:06:25.457Z,87.45
2019-01-14T02:07:25.431Z,86.83
2019-01-14T02:08:25.412Z,86.31
2019-01-14T02:09:25.396Z,86.25
2019-01-14T02:10:25.374Z,86.97
2019-01-14T02:11:25.375Z,86.83
2019-01-14T02:12:25.394Z,85.38
2019-01-14T02:13:25.360Z,85.89
2019-01-14T02:14:25.334Z,85.48
2019-01-14T02:15:25.330Z,86.52
2019-01-14T02:16:25.316Z,86.35
2019-01-14T02:17:25.299Z,86.41
2019-01-14T02:18:25.315Z,85.48
2019-01-14T02:19:25.272Z,85.58
2019-01-14T02:20:25.269Z,85.00
2019-01-14T02:21:25.259Z,85.48
2019-01-14T02:22:25.294Z,85.06
2019-01-14T02:23:25.239Z,85.63
2019-01-14T02:24:25.248Z,85.27
2019-01-14T02:25:25.240Z,85.06
2019-01-14T02:26:25.208Z,85.63
2019-01-14T02:27:25.194Z,85.27
2019-01-14T02:28:25.179Z,84.38
2019-01-14T02:29:25.191Z,84.69
2019-01-14T02:30:25.160Z,84.07
2019-01-14T02:31:25.144Z,84.28
2019-01-14T02:32:25.140Z,83.93
2019-01-14T02:33:25.126Z,83.86
2019-01-14T02:34:25.139Z,83.76
2019-01-14T02:35:25.105Z,83.62
2019-01-14T02:36:25.089Z,83.03
2019-01-14T02:37:25.077Z,84.55
2019-01-14T02:38:25.082Z,83.45
2019-01-14T02:39:25.083Z,84.17
2019-01-14T02:40:25.059Z,83.86
2019-01-14T02:41:25.046Z,84.48
2019-01-14T02:42:25.019Z,83.97
2019-01-14T02:43:25.031Z,83.55
2019-01-14T02:44:25.019Z,83.97
2019-01-14T02:45:25.000Z,82.20
2019-01-14T02:46:25.012Z,82.10
2019-01-14T02:47:24.973Z,82.72
2019-01-14T02:48:25.368Z,82.51
2019-01-14T02:49:24.980Z,81.89
2019-01-14T02:50:24.930Z,81.02
2019-01-14T02:51:24.927Z,82.79
2019-01-14T02:52:24.926Z,82.10
2019-01-14T02:53:24.912Z,82.06
2019-01-14T02:54:24.900Z,80.96
2019-01-14T02:55:24.906Z,82.27
2019-01-14T02:56:24.877Z,82.20
2019-01-14T02:57:24.866Z,81.99
2019-01-14T02:58:24.891Z,81.99
2019-01-14T02:59:24.850Z,82.68
2019-01-14T03:00:24.824Z,82.37
2019-01-14T03:01:24.812Z,82.10
2019-01-14T03:02:24.804Z,81.99
2019-01-14T03:03:24.798Z,80.85
2019-01-14T03:04:24.819Z,81.89
2019-01-14T03:05:24.789Z,81.89
2019-01-14T03:06:24.768Z,82.10
2019-01-14T03:07:24.768Z,81.06
2019-01-14T03:08:24.740Z,81.16
2019-01-14T03:09:24.751Z,81.16
2019-01-14T03:10:24.721Z,81.99
2019-01-14T03:11:24.718Z,81.68
2019-01-14T03:12:24.704Z,82.10
2019-01-14T03:13:24.697Z,80.33
2019-01-14T03:14:24.710Z,80.75
2019-01-14T03:15:24.664Z,81.06
2019-01-14T03:16:24.660Z,80.75
2019-01-14T03:17:24.661Z,81.06
2019-01-14T03:18:24.638Z,80.85
2019-01-14T03:19:24.625Z,79.92
2019-01-14T03:20:24.626Z,79.51
2019-01-14T03:21:24.595Z,81.16
2019-01-14T03:22:24.601Z,81.16
2019-01-14T03:23:24.584Z,81.16
2019-01-14T03:24:24.589Z,79.82
2019-01-14T03:25:24.548Z,80.75
2019-01-14T03:26:24.545Z,81.06
2019-01-14T03:27:24.529Z,81.16
2019-01-14T03:28:24.544Z,81.06
2019-01-14T03:29:24.517Z,80.44
2019-01-14T03:30:24.524Z,80.85
2019-01-14T03:31:24.493Z,80.75
2019-01-14T03:32:24.488Z,79.30
2019-01-14T03:33:24.474Z,80.27
2019-01-14T03:34:24.465Z,78.99
2019-01-14T03:35:24.451Z,80.06
2019-01-14T03:36:24.472Z,79.20
2019-01-14T03:37:24.427Z,80.85
2019-01-14T03:38:24.410Z,80.58
2019-01-14T03:39:24.410Z,79.65
2019-01-14T03:40:24.408Z,79.41
2019-01-14T03:41:24.420Z,80.16
2019-01-14T03:42:24.375Z,79.13
2019-01-14T03:43:24.368Z,79.75
2019-01-14T03:44:24.362Z,80.16
2019-01-14T03:45:24.395Z,79.13
2019-01-14T03:46:24.332Z,79.65
2019-01-14T03:47:24.322Z,81.10
2019-01-14T03:48:24.329Z,79.85
2019-01-14T03:49:24.290Z,80.68
2019-01-14T03:50:24.274Z,80.16
2019-01-14T03:51:24.277Z,79.03
2019-01-14T03:52:24.262Z,79.85
2019-01-14T03:53:24.258Z,80.37
2019-01-14T03:54:24.268Z,80.06
2019-01-14T03:55:24.238Z,79.75
2019-01-14T03:56:24.212Z,79.34
2019-01-14T03:57:24.201Z,78.92
2019-01-14T03:58:24.216Z,78.09
2019-01-14T03:59:24.178Z,78.61
2019-01-14T04:00:24.198Z,78.72
2019-01-14T04:01:24.170Z,79.75
2019-01-14T04:02:24.149Z,77.68
2019-01-14T04:03:24.135Z,78.41
2019-01-14T04:04:24.162Z,78.13
2019-01-14T04:05:24.156Z,79.44
2019-01-14T04:06:24.122Z,78.09
2019-01-14T04:07:24.104Z,79.24
2019-01-14T04:08:24.078Z,78.09
2019-01-14T04:09:24.075Z,78.09
2019-01-14T04:10:24.081Z,77.89
2019-01-14T04:11:24.052Z,78.55
2019-01-14T04:12:24.048Z,77.51
2019-01-14T04:13:24.036Z,78.34
2019-01-14T04:14:24.027Z,77.72
2019-01-14T04:15:24.120Z,78.03
2019-01-14T04:16:23.989Z,76.06
2019-01-14T04:17:24.037Z,78.13
2019-01-14T04:18:24.035Z,78.44
2019-01-14T04:19:23.968Z,77.51
2019-01-14T04:20:23.949Z,77.61
2019-01-14T04:21:23.942Z,77.51
2019-01-14T04:22:23.930Z,75.64
2019-01-14T04:23:23.920Z,75.33
2019-01-14T04:24:23.953Z,76.57
2019-01-14T04:25:23.934Z,76.68
2019-01-14T04:26:23.897Z,76.57
2019-01-14T04:27:23.894Z,76.81
2019-01-14T04:28:23.897Z,75.36
2019-01-14T04:29:23.857Z,74.22
2019-01-14T04:30:23.842Z,76.09
2019-01-14T04:31:23.837Z,74.32
2019-01-14T04:32:23.828Z,75.57
2019-01-14T04:33:23.824Z,75.15
2019-01-14T04:34:23.857Z,75.05
2019-01-14T04:35:23.800Z,75.50
2019-01-14T04:36:23.789Z,74.88
2019-01-14T04:37:23.774Z,74.77
2019-01-14T04:38:23.775Z,74.08
2019-01-14T04:39:23.783Z,73.97
2019-01-14T04:40:23.741Z,74.08
2019-01-14T04:41:23.728Z,74.22
2019-01-14T04:42:23.713Z,74.70
2019-01-14T04:43:23.705Z,76.29
2019-01-14T04:44:23.698Z,75.57
2019-01-14T04:45:23.709Z,74.01
2019-01-14T04:46:23.678Z,73.80
2019-01-14T04:47:23.665Z,74.04
2019-01-14T04:48:23.645Z,74.77
2019-01-14T04:49:23.653Z,75.19
2019-01-14T04:50:23.653Z,73.73
2019-01-14T04:51:23.617Z,73.70
2019-01-14T04:52:23.603Z,72.59
2019-01-14T04:53:23.615Z,73.42
2019-01-14T04:54:23.581Z,74.35
2019-01-14T04:55:23.585Z,74.98
2019-01-14T04:56:23.574Z,73.77
2019-01-14T04:57:23.585Z,74.08
2019-01-14T04:58:23.591Z,73.46
2019-01-14T04:59:23.529Z,74.18
2019-01-14T05:00:23.527Z,72.83
2019-01-14T05:01:23.505Z,72.69
2019-01-14T05:02:23.495Z,73.03
2019-01-14T05:03:23.516Z,72.83
2019-01-14T05:04:23.486Z,72.31
2019-01-14T05:05:23.465Z,72.31
2019-01-14T05:06:23.449Z,72.93
2019-01-14T05:07:29.563Z,73.14
2019-01-14T05:08:24.469Z,72.93
2019-01-14T05:09:23.439Z,73.03
2019-01-14T05:10:23.413Z,74.43
2019-01-14T05:11:23.396Z,74.74
2019-01-14T05:12:23.381Z,73.28
2019-01-14T05:13:23.373Z,73.59
2019-01-14T05:14:23.387Z,73.80
2019-01-14T05:15:23.359Z,74.53
2019-01-14T05:16:23.360Z,73.69
2019-01-14T05:17:23.338Z,74.49
2019-01-14T05:18:23.351Z,73.87
2019-01-14T05:19:23.312Z,73.97
2019-01-14T05:20:23.330Z,74.49
2019-01-14T05:21:23.303Z,73.35
2019-01-14T05:22:23.289Z,72.72
2019-01-14T05:23:23.270Z,73.66
2019-01-14T05:24:23.253Z,72.07
2019-01-14T05:25:23.242Z,73.56
2019-01-14T05:26:23.261Z,73.73
2019-01-14T05:27:23.238Z,73.87
2019-01-14T05:28:23.221Z,72.80
2019-01-14T05:29:23.222Z,72.28
2019-01-14T05:30:23.195Z,72.49
2019-01-14T05:31:23.178Z,73.32
2019-01-14T05:32:23.197Z,71.86
2019-01-14T05:33:23.154Z,72.07
2019-01-14T05:34:23.147Z,71.86
2019-01-14T05:35:23.145Z,72.49
2019-01-14T05:36:23.135Z,71.55
2019-01-14T05:37:23.115Z,74.25
2019-01-14T05:38:23.119Z,70.82
2019-01-14T05:39:23.115Z,72.59
2019-01-14T05:40:23.084Z,72.80
2019-01-14T05:41:23.087Z,72.28
2019-01-14T05:42:23.088Z,72.80
2019-01-14T05:43:23.096Z,73.42
2019-01-14T05:44:23.046Z,71.44
2019-01-14T05:45:23.028Z,71.97
2019-01-14T05:46:23.021Z,73.11
2019-01-14T05:47:23.016Z,73.32
2019-01-14T05:48:23.031Z,72.90
2019-01-14T05:49:22.990Z,71.97
2019-01-14T05:50:22.982Z,70.72
2019-01-14T05:51:22.965Z,71.75
2019-01-14T05:52:22.950Z,71.75
2019-01-14T05:53:22.950Z,71.75
2019-01-14T05:54:22.957Z,71.13
2019-01-14T05:55:22.917Z,70.82
2019-01-14T05:56:22.911Z,72.28
2019-01-14T05:57:22.894Z,72.49
2019-01-14T05:58:22.911Z,72.07
2019-01-14T05:59:22.888Z,73.56
2019-01-14T06:00:22.866Z,72.38
2019-01-14T06:01:22.868Z,70.61
2019-01-14T06:02:22.855Z,72.17
2019-01-14T06:03:22.849Z,71.44
2019-01-14T06:04:22.839Z,71.34
2019-01-14T06:05:22.810Z,70.92
2019-01-14T06:06:22.799Z,70.72
2019-01-14T06:07:22.808Z,71.44
2019-01-14T06:08:22.784Z,71.48
2019-01-14T06:09:22.786Z,71.03
2019-01-14T06:10:22.755Z,71.55
2019-01-14T06:11:22.769Z,71.13
2019-01-14T06:12:22.739Z,71.44
2019-01-14T06:13:22.739Z,71.89
2019-01-14T06:14:22.720Z,71.86
2019-01-14T06:15:22.727Z,72.28
2019-01-14T06:16:22.693Z,72.10
2019-01-14T06:17:22.673Z,71.89
2019-01-14T06:18:22.667Z,72.62
2019-01-14T06:19:22.688Z,72.20
2019-01-14T06:20:22.655Z,74.18
2019-01-14T06:21:22.664Z,72.83
2019-01-14T06:22:22.636Z,73.25
2019-01-14T06:23:22.606Z,73.56
2019-01-14T06:24:22.607Z,73.80
2019-01-14T06:25:22.595Z,74.32
2019-01-14T06:26:22.600Z,75.36
2019-01-14T06:27:22.569Z,75.36
2019-01-14T06:28:22.564Z,75.78
2019-01-14T06:29:22.543Z,75.46
2019-01-14T06:30:22.543Z,75.05
2019-01-14T06:31:22.553Z,74.53
2019-01-14T06:32:22.530Z,76.40
2019-01-14T06:33:22.536Z,76.37
2019-01-14T06:34:22.498Z,76.37
2019-01-14T06:35:22.478Z,76.06
2019-01-14T06:36:22.479Z,76.16
2019-01-14T06:37:22.474Z,76.16
2019-01-14T06:38:22.469Z,76.89
2019-01-14T06:39:22.454Z,76.78
2019-01-14T06:40:22.441Z,75.85
2019-01-14T06:41:22.441Z,77.40
2019-01-14T06:42:22.416Z,76.57
2019-01-14T06:43:22.436Z,76.99
2019-01-14T06:44:22.393Z,76.68
2019-01-14T06:45:22.380Z,77.51
2019-01-14T06:46:22.370Z,78.34
2019-01-14T06:47:22.350Z,77.93
2019-01-14T06:48:22.343Z,78.03
2019-01-14T06:49:22.360Z,77.51
2019-01-14T06:50:22.316Z,79.17
2019-01-14T06:51:22.311Z,79.17
2019-01-14T06:52:22.305Z,79.49
2019-01-14T06:53:22.292Z,80.74
2019-01-14T06:54:22.284Z,81.57
2019-01-14T06:55:22.285Z,81.98
2019-01-14T06:56:22.255Z,81.57
2019-01-14T06:57:22.253Z,80.94
2019-01-14T06:58:22.235Z,81.46
2019-01-14T06:59:22.246Z,80.74
2019-01-14T07:00:22.206Z,82.20
2019-01-14T07:01:22.194Z,83.69
2019-01-14T07:02:22.187Z,84.73
2019-01-14T07:03:22.178Z,86.12
2019-01-14T07:04:22.166Z,86.68
2019-01-14T07:05:22.173Z,87.20
2019-01-14T07:06:22.448Z,87.41
2019-01-14T07:07:22.126Z,88.60
2019-01-14T07:08:22.117Z,89.32
2019-01-14T07:09:22.113Z,88.60
2019-01-14T07:10:22.126Z,89.64
2019-01-14T07:11:22.104Z,90.16
2019-01-14T07:12:22.087Z,89.22
2019-01-14T07:13:22.068Z,89.89
2019-01-14T07:14:22.084Z,90.72
2019-01-14T07:15:22.064Z,89.78
2019-01-14T07:16:22.085Z,89.89
2019-01-14T07:17:22.039Z,90.10
2019-01-14T07:18:22.026Z,90.10
2019-01-14T07:19:22.026Z,89.16
2019-01-14T07:20:22.000Z,88.64
2019-01-14T07:21:22.004Z,88.75
2019-01-14T07:22:22.008Z,88.32
2019-01-14T07:23:21.979Z,87.60
2019-01-14T07:24:21.960Z,86.93
2019-01-14T07:25:21.957Z,87.55
2019-01-14T07:26:21.941Z,85.99
2019-01-14T07:27:21.921Z,85.68
2019-01-14T07:28:21.929Z,83.49
2019-01-14T07:29:21.935Z,81.68
2019-01-14T07:30:21.967Z,81.16
2019-01-14T07:31:21.875Z,80.12
2019-01-14T07:32:21.887Z,79.70
2019-01-14T07:33:21.872Z,78.00
2019-01-14T07:34:21.842Z,76.96
2019-01-14T07:35:21.845Z,76.02
2019-01-14T07:36:21.831Z,76.23
2019-01-14T07:37:21.814Z,76.43
2019-01-14T07:38:21.839Z,75.67
2019-01-14T07:39:21.787Z,75.26
2019-01-14T07:40:21.777Z,74.43
2019-01-14T07:41:21.771Z,72.86
2019-01-14T07:42:21.760Z,73.80
2019-01-14T07:43:21.748Z,74.11
2019-01-14T07:44:21.781Z,70.89
2019-01-14T07:45:21.724Z,69.64
2019-01-14T07:46:21.715Z,70.57
2019-01-14T07:47:21.708Z,71.30
2019-01-14T07:48:21.699Z,69.64
2019-01-14T07:49:21.693Z,68.80
2019-01-14T07:50:21.694Z,68.04
2019-01-14T07:51:21.652Z,68.04
2019-01-14T07:52:21.744Z,67.18
2019-01-14T07:53:21.644Z,67.60
2019-01-14T07:54:21.636Z,67.73
2019-01-14T07:55:21.657Z,68.95
2019-01-14T07:56:21.613Z,68.43
2019-01-14T07:57:21.600Z,68.66
2019-01-14T07:58:21.646Z,68.63
2019-01-14T07:59:21.570Z,69.05
2019-01-14T08:00:21.568Z,70.51
2019-01-14T08:01:21.585Z,69.78
2019-01-14T08:02:21.569Z,70.54
2019-01-14T08:03:21.541Z,71.58
2019-01-14T08:04:21.525Z,71.06
2019-01-14T08:05:21.516Z,70.92
2019-01-14T08:06:21.513Z,72.00
2019-01-14T08:07:21.491Z,71.27
2019-01-14T08:08:21.485Z,71.75
2019-01-14T08:09:21.479Z,71.97
2019-01-14T08:10:21.482Z,73.21
2019-01-14T08:11:21.442Z,72.69
2019-01-14T08:12:21.439Z,71.44
2019-01-14T08:13:21.458Z,72.38
2019-01-14T08:14:21.406Z,72.59
2019-01-14T08:15:21.416Z,71.86
2019-01-14T08:16:21.406Z,71.44
2019-01-14T08:17:21.375Z,72.86
2019-01-14T08:18:21.387Z,71.31
2019-01-14T08:19:21.368Z,71.10
2019-01-14T08:20:21.407Z,69.92
2019-01-14T08:21:21.343Z,70.48
2019-01-14T08:22:21.330Z,69.82
2019-01-14T08:23:21.324Z,70.03
2019-01-14T08:24:21.298Z,68.88
2019-01-14T08:25:21.284Z,69.61
2019-01-14T08:26:21.307Z,69.37
2019-01-14T08:27:21.273Z,69.40
2019-01-14T08:28:21.265Z,67.82
2019-01-14T08:29:21.260Z,69.58
2019-01-14T08:30:21.249Z,68.13
2019-01-14T08:31:21.234Z,67.40
2019-01-14T08:32:21.244Z,66.88
2019-01-14T08:33:21.212Z,67.09
2019-01-14T08:34:21.198Z,67.89
2019-01-14T08:35:21.195Z,66.85
2019-01-14T08:36:21.163Z,67.06
2019-01-14T08:37:21.155Z,66.12
2019-01-14T08:38:21.519Z,66.85
2019-01-14T08:39:21.136Z,66.20
2019-01-14T08:40:21.139Z,66.64
2019-01-14T08:41:21.124Z,65.58
2019-01-14T08:42:21.124Z,65.13
2019-01-14T08:43:21.119Z,63.31
2019-01-14T08:44:21.083Z,63.17
2019-01-14T08:45:21.090Z,61.72
2019-01-14T08:46:21.055Z,60.66
2019-01-14T08:47:21.064Z,61.07
2019-01-14T08:48:21.047Z,60.66
2019-01-14T08:49:21.029Z,59.83
2019-01-14T08:50:21.041Z,60.63
2019-01-14T08:51:21.017Z,60.30
2019-01-14T08:52:21.003Z,59.19
2019-01-14T08:53:20.995Z,59.83
2019-01-14T08:54:20.986Z,60.27
2019-01-14T08:55:20.960Z,61.93
2019-01-14T08:56:20.978Z,62.45
2019-01-14T08:57:20.946Z,60.17
2019-01-14T08:58:20.925Z,59.83
2019-01-14T08:59:20.925Z,59.39
2019-01-14T09:00:20.910Z,59.23
2019-01-14T09:01:20.906Z,55.77
2019-01-14T09:02:20.917Z,57.29
2019-01-14T09:03:20.877Z,55.64
2019-01-14T09:04:23.405Z,53.86
2019-01-14T09:05:20.871Z,53.34
2019-01-14T09:06:20.838Z,53.68
2019-01-14T09:07:20.875Z,53.81
2019-01-14T09:08:20.820Z,54.22
2019-01-14T09:09:20.810Z,54.48
2019-01-14T09:10:20.806Z,55.20
2019-01-14T09:11:20.796Z,55.49
2019-01-14T09:12:20.778Z,55.46
2019-01-14T09:13:20.791Z,54.63
2019-01-14T09:14:20.760Z,55.51
2019-01-14T09:15:20.760Z,52.94
2019-01-14T09:16:20.733Z,48.50
2019-01-14T09:17:20.715Z,45.60
2019-01-14T09:18:20.733Z,43.37
2019-01-14T09:19:20.706Z,42.12
2019-01-14T09:20:20.724Z,40.01
2019-01-14T09:21:20.666Z,38.74
2019-01-14T09:22:20.660Z,37.10
2019-01-14T09:23:20.658Z,37.01
2019-01-14T09:24:20.644Z,36.40
2019-01-14T09:25:20.636Z,37.49
2019-01-14T09:26:20.639Z,36.25
2019-01-14T09:27:20.606Z,36.22
2019-01-14T09:28:20.608Z,34.90
2019-01-14T09:29:20.593Z,33.48
2019-01-14T09:30:20.577Z,33.95
2019-01-14T09:31:20.569Z,34.04
2019-01-14T09:32:20.560Z,32.01
2019-01-14T09:33:20.569Z,33.34
2019-01-14T09:34:20.531Z,33.76
2019-01-14T09:35:20.535Z,32.83
2019-01-14T09:36:20.518Z,33.54
2019-01-14T09:37:20.533Z,34.66
2019-01-14T09:38:20.517Z,33.34
2019-01-14T09:39:20.471Z,33.65
2019-01-14T09:40:20.460Z,34.17
2019-01-14T09:41:20.447Z,34.14
2019-01-14T09:42:20.507Z,33.65
2019-01-14T09:43:20.458Z,33.59
2019-01-14T09:44:20.427Z,33.66
2019-01-14T09:45:20.448Z,34.87
2019-01-14T09:46:20.411Z,33.21
2019-01-14T09:47:20.391Z,32.68
2019-01-14T09:48:20.412Z,32.09
2019-01-14T09:49:20.359Z,32.12
2019-01-14T09:50:20.356Z,32.82
2019-01-14T09:51:20.345Z,32.40
2019-01-14T09:52:20.354Z,32.79
2019-01-14T09:53:20.329Z,32.57
2019-01-14T09:54:20.326Z,31.44
2019-01-14T09:55:20.306Z,30.40
2019-01-14T09:56:20.305Z,30.73
2019-01-14T09:57:20.291Z,30.02
2019-01-14T09:58:20.321Z,30.73
2019-01-14T09:59:20.265Z,30.64
2019-01-14T10:00:20.265Z,30.76
2019-01-14T10:01:20.236Z,29.63
2019-01-14T10:02:20.231Z,31.26
2019-01-14T10:03:20.220Z,30.40
2019-01-14T10:04:20.213Z,30.32
2019-01-14T10:05:20.218Z,30.93
2019-01-14T10:06:20.199Z,32.04
2019-01-14T10:07:20.180Z,33.46
2019-01-14T10:08:20.161Z,32.35
2019-01-14T10:09:20.160Z,32.85
2019-01-14T10:10:20.161Z,30.80
2019-01-14T10:11:20.150Z,30.61
2019-01-14T10:12:20.162Z,33.48
2019-01-14T10:13:20.109Z,31.12
2019-01-14T10:14:20.091Z,32.10
2019-01-14T10:15:20.123Z,31.50
2019-01-14T10:16:20.115Z,33.44
2019-01-14T10:17:20.067Z,34.83
2019-01-14T10:18:20.055Z,35.66
2019-01-14T10:19:20.042Z,38.25
2019-01-14T10:20:20.023Z,37.68
2019-01-14T10:21:20.026Z,35.42
2019-01-14T10:22:20.032Z,35.61
2019-01-14T10:23:20.001Z,34.98
2019-01-14T10:24:19.996Z,34.03
2019-01-14T10:25:19.968Z,35.03
2019-01-14T10:26:19.953Z,32.90
2019-01-14T10:27:19.970Z,33.58
2019-01-14T10:28:19.987Z,32.14
2019-01-14T10:29:19.940Z,32.32
2019-01-14T10:30:19.926Z,32.40
2019-01-14T10:31:20.142Z,31.16
2019-01-14T10:32:19.888Z,31.56
2019-01-14T10:33:19.895Z,30.85
2019-01-14T10:34:19.860Z,29.51
2019-01-14T10:35:19.863Z,29.73
2019-01-14T10:36:19.859Z,31.52
2019-01-14T10:37:22.963Z,34.39
2019-01-14T10:38:19.850Z,36.51
2019-01-14T10:39:19.840Z,37.93
2019-01-14T10:40:19.801Z,38.83
2019-01-14T10:41:19.795Z,36.00
2019-01-14T10:42:19.791Z,37.46
2019-01-14T10:43:19.758Z,34.45
2019-01-14T10:44:19.824Z,33.83
2019-01-14T10:45:19.742Z,33.80
2019-01-14T10:46:19.738Z,32.54
2019-01-14T10:47:19.753Z,32.83
2019-01-14T10:48:19.716Z,31.77
2019-01-14T10:49:19.702Z,31.54
2019-01-14T10:50:19.715Z,31.13
2019-01-14T10:51:19.681Z,30.12
2019-01-14T10:52:19.676Z,30.57
2019-01-14T10:53:19.653Z,30.33
2019-01-14T10:54:19.674Z,29.93
2019-01-14T10:55:19.639Z,30.13
2019-01-14T10:56:19.633Z,31.10
2019-01-14T10:57:19.623Z,31.60
2019-01-14T10:58:19.632Z,32.57
2019-01-14T10:59:19.595Z,33.37
2019-01-14T11:00:19.593Z,32.75
2019-01-14T11:01:19.571Z,31.51
2019-01-14T11:02:19.558Z,32.12
2019-01-14T11:03:19.544Z,32.15
2019-01-14T11:04:19.561Z,32.44
2019-01-14T11:05:19.519Z,32.37
2019-01-14T11:06:19.501Z,32.82
2019-01-14T11:07:19.516Z,33.52
2019-01-14T11:08:19.487Z,34.08
2019-01-14T11:09:19.484Z,36.17
2019-01-14T11:10:19.494Z,36.27
2019-01-14T11:11:19.458Z,37.05
2019-01-14T11:12:19.447Z,39.98
2019-01-14T11:13:19.447Z,40.88
2019-01-14T11:14:19.443Z,43.57
2019-01-14T11:15:19.405Z,44.10
2019-01-14T11:16:19.427Z,44.43
2019-01-14T11:17:19.379Z,43.34
2019-01-14T11:18:19.379Z,42.66
2019-01-14T11:19:19.371Z,42.32
2019-01-14T11:20:19.367Z,39.84
2019-01-14T11:21:19.347Z,36.08
2019-01-14T11:22:19.378Z,36.73
2019-01-14T11:23:19.330Z,36.22
2019-01-14T11:24:19.314Z,35.49
2019-01-14T11:25:19.310Z,37.07
2019-01-14T11:26:19.294Z,36.43
2019-01-14T11:27:19.302Z,35.40
2019-01-14T11:28:19.289Z,36.96
2019-01-14T11:29:19.258Z,38.81
2019-01-14T11:30:19.247Z,40.13
2019-01-14T11:31:19.255Z,42.85
2019-01-14T11:32:19.224Z,41.94
2019-01-14T11:33:19.246Z,44.45
2019-01-14T11:34:19.198Z,46.14
2019-01-14T11:35:19.188Z,46.27
2019-01-14T11:36:19.174Z,46.14
2019-01-14T11:37:19.170Z,44.70
2019-01-14T11:38:19.152Z,45.87
2019-01-14T11:39:19.173Z,47.42
2019-01-14T11:40:19.144Z,46.70
2019-01-14T11:41:19.131Z,45.90
2019-01-14T11:42:19.130Z,44.74
2019-01-14T11:43:19.106Z,46.00
2019-01-14T11:44:19.124Z,46.72
2019-01-14T11:45:19.125Z,47.47
2019-01-14T11:46:19.078Z,49.43
2019-01-14T11:47:19.058Z,47.49
2019-01-14T11:48:19.044Z,47.80
2019-01-14T11:49:19.034Z,50.00
2019-01-14T11:50:19.026Z,48.75
2019-01-14T11:51:19.042Z,48.99
2019-01-14T11:52:19.013Z,49.40
2019-01-14T11:53:18.999Z,50.56
2019-01-14T11:54:18.984Z,50.67
2019-01-14T11:55:18.981Z,49.76
2019-01-14T11:56:18.998Z,50.59
2019-01-14T11:57:18.956Z,48.93
2019-01-14T11:58:18.945Z,50.38
2019-01-14T11:59:18.938Z,51.44
2019-01-14T12:00:18.914Z,51.96
2019-01-14T12:01:18.921Z,51.75
2019-01-14T12:02:18.955Z,52.27
2019-01-14T12:03:18.891Z,51.75
2019-01-14T12:04:18.878Z,51.86
2019-01-14T12:05:18.869Z,51.86
2019-01-14T12:06:18.853Z,51.23
2019-01-14T12:07:18.857Z,52.81
2019-01-14T12:08:18.869Z,52.69
2019-01-14T12:09:18.838Z,52.06
2019-01-14T12:10:18.825Z,51.34
2019-01-14T12:11:18.799Z,52.37
2019-01-14T12:12:18.782Z,52.69
2019-01-14T12:13:18.772Z,51.75
2019-01-14T12:14:18.793Z,51.65
2019-01-14T12:15:18.764Z,51.75
2019-01-14T12:16:18.749Z,51.65
2019-01-14T12:17:18.723Z,50.92
2019-01-14T12:18:18.719Z,49.47
2019-01-14T12:19:18.718Z,49.88
2019-01-14T12:20:18.738Z,49.05
2019-01-14T12:21:18.700Z,51.23
2019-01-14T12:22:18.696Z,49.99
2019-01-14T12:23:18.663Z,51.03
2019-01-14T12:24:18.666Z,48.82
2019-01-14T12:25:19.945Z,50.51
2019-01-14T12:26:18.675Z,49.88
2019-01-14T12:27:18.633Z,50.30
2019-01-14T12:28:18.621Z,51.21
2019-01-14T12:29:18.609Z,51.96
2019-01-14T12:30:18.599Z,51.03
2019-01-14T12:31:18.586Z,51.96
2019-01-14T12:32:18.624Z,49.99
2019-01-14T12:33:18.566Z,51.13
2019-01-14T12:34:18.562Z,50.95
2019-01-14T12:35:18.537Z,49.99
2019-01-14T12:36:18.539Z,51.03
2019-01-14T12:37:18.531Z,51.54
2019-01-14T12:38:18.528Z,51.23
2019-01-14T12:39:19.723Z,51.26
2019-01-14T12:40:18.504Z,53.33
2019-01-14T12:41:18.488Z,52.61
2019-01-14T12:42:18.474Z,52.81
2019-01-14T12:43:20.115Z,50.84
2019-01-14T12:44:18.439Z,52.42
2019-01-14T12:45:18.443Z,52.31
2019-01-14T12:46:18.412Z,52.21
2019-01-14T12:47:18.410Z,51.90
2019-01-14T12:48:18.404Z,51.59
2019-01-14T12:49:18.401Z,50.76
2019-01-14T12:50:18.401Z,52.00
2019-01-14T12:51:18.370Z,51.38
2019-01-14T12:52:18.357Z,50.96